Boonsboro, MD

10:49 AM EST on January 30, 2015 (GMT -0500)
Hagerstown Regional-Henson | Change Station
CLOSE
Current Station
Airport
Location: Hagerstown,
Elevation: 705 ft
Nearby Weather Stations
Active Advisory: Wind Advisory

Elev 705 ft 39.71 °N, 77.73 °W | Updated 56 minutes ago

Overcast
Overcast
33 °F
Feels Like 23 °F
N
16
Wind Variable Wind from WNW

Today
High -- | Low -- °F
--% Chance of Precip.
Yesterday
High -- | Low -- °F
Precip. -- in
7:20 AM 5:28 PM
Waxing Gibbous, 83% visible
Pressure 30.07 in
Visibility 9.0 miles
Clouds Few 2900 ft
Scattered Clouds 4200 ft
Overcast 7000 ft
Windchill 23 °F
Dew Point 24 °F
Humidity 70%
Rainfall 0.00 in
Snow Depth Not available.
UV 1 out of 12
Pollen .30 out of 12
Air Quality Not available.
Flu Activity Not available.
METAR KHGR 301453Z 29014KT 9SM FEW029 SCT042 OVC070 01/M04 A3002 RMK AO2 PK WND 29032/1402 SLP182 T00061044 53020

More Conditions Fewer Conditions

Pressure 30.07 in
Visibility 9.0 miles
Clouds Few 2900 ft
Scattered Clouds 4200 ft
Overcast 7000 ft
Windchill 23 °F
Dew Point 24 °F
Humidity 70%
Rainfall 0.00 in
Snow Depth Not available.
UV 1 out of 12
Pollen .30 out of 12
Air Quality Not available.
Flu Activity Not available.
METAR KHGR 301453Z 29014KT 9SM FEW029 SCT042 OVC070 01/M04 A3002 RMK AO2 PK WND 29032/1402 SLP182 T00061044 53020

More Conditions Fewer Conditions

Nowcast | as of 8:53 am EST on January 30, 2015

Scattered snow showers will move across eastern West Virginia...northern Virginia...central Maryland...and the greater Washington Metro area through the mid morning hours. These snow showers may briefly reduce visibilities to a quarter of a mile and produce less than an inch of snowfall accumulation. If driving...be alert for sudden reductions in visibility and possible slick Road conditions. Reduce speed and increase following distance.

×

10-Day Weather Forecast

Almanac

Astronomy

Jan. 30, 2015 Rise Set
Actual Time
Civil Twilight
Nautical Twilight
Astronomical Twilight
Moon
Length of Visible Light
Length of Day
Tomorrow will be .
, % of the Moon is Illuminated

Today's Extremes

State Highs State Lows

Community

WunderPhotos

Upload Photos

1,791,791 photos uploaded!

WunderBlogs® & News

Nearby

Air Quality

  Air Quality AQ Index Pollutant
Not available.

Snow Depth

Station Depth Elevation

Earthquake Activity

City Distance Mag. Time & Date
Minimum magnitude displayed is 2.5.

Coastal Water Temperatures

Place Temperature

Nearby Weather Stations